createdAt,value
2023-07-17T04:15:04.596Z,54.00
2023-07-17T04:16:04.717Z,56.00
2023-07-17T04:17:04.812Z,60.00
2023-07-17T04:18:05.060Z,67.00
2023-07-17T04:19:05.133Z,81.00
2023-07-17T04:20:05.219Z,95.00
2023-07-17T04:21:05.334Z,92.00
2023-07-17T04:22:05.479Z,78.00
2023-07-17T04:23:05.600Z,84.00
2023-07-17T04:24:05.770Z,89.00
2023-07-17T04:25:05.830Z,98.00
2023-07-17T04:26:05.937Z,96.00
2023-07-17T04:27:06.100Z,84.00
2023-07-17T04:28:06.171Z,84.00
2023-07-17T04:29:06.332Z,97.00
2023-07-17T04:30:06.438Z,113.00
2023-07-17T04:31:07.498Z,141.00
2023-07-17T04:32:06.646Z,114.00
2023-07-17T04:33:06.818Z,101.00
2023-07-17T04:34:06.920Z,93.00
2023-07-17T04:35:07.086Z,92.00
2023-07-17T04:36:07.155Z,91.00
2023-07-17T04:37:07.292Z,90.00
2023-07-17T04:38:07.457Z,91.00
2023-07-17T04:39:07.545Z,91.00
2023-07-17T04:40:07.695Z,89.00
2023-07-17T04:41:07.832Z,89.00
2023-07-17T04:42:08.008Z,91.00
2023-07-17T04:43:08.109Z,91.00
2023-07-17T04:44:08.258Z,92.00
2023-07-17T04:45:08.495Z,92.00
2023-07-17T04:46:08.500Z,94.00
2023-07-17T04:47:08.687Z,95.00
2023-07-17T04:48:08.797Z,98.00
2023-07-17T04:49:08.901Z,99.00
2023-07-17T04:50:08.991Z,100.00
2023-07-17T04:51:09.122Z,103.00
2023-07-17T04:52:09.205Z,107.00
2023-07-17T04:53:09.305Z,118.00
2023-07-17T04:54:09.457Z,133.00
2023-07-17T04:55:09.600Z,134.00
2023-07-17T04:56:09.730Z,129.00
2023-07-17T04:57:09.877Z,126.00
2023-07-17T04:58:10.026Z,135.00
2023-07-17T04:59:10.149Z,158.00
2023-07-17T05:00:10.269Z,173.00
2023-07-17T05:01:10.544Z,185.00
2023-07-17T05:02:10.525Z,198.00
2023-07-17T05:03:10.727Z,179.00
2023-07-17T05:04:10.855Z,162.00
2023-07-17T05:05:10.900Z,165.00
2023-07-17T05:06:11.068Z,177.00
2023-07-17T05:07:11.176Z,195.00
2023-07-17T05:08:11.328Z,208.00
2023-07-17T05:09:11.431Z,222.00
2023-07-17T05:10:11.680Z,218.00
2023-07-17T05:11:11.692Z,229.00
2023-07-17T05:12:11.854Z,226.00
2023-07-17T05:13:11.968Z,210.00
2023-07-17T05:14:12.101Z,237.00
2023-07-17T05:15:12.249Z,253.00
2023-07-17T05:16:12.381Z,280.00
2023-07-17T05:17:12.416Z,305.00
2023-07-17T05:18:12.553Z,321.00
2023-07-17T05:19:12.687Z,355.00
2023-07-17T05:20:12.926Z,354.00
2023-07-17T05:21:12.987Z,250.00
2023-07-17T05:22:13.058Z,259.00
2023-07-17T05:23:13.381Z,249.00
2023-07-17T05:24:13.356Z,227.00
2023-07-17T05:25:13.485Z,200.00
2023-07-17T05:26:13.627Z,182.00
2023-07-17T05:27:13.733Z,191.00
2023-07-17T05:28:13.900Z,180.00
2023-07-17T05:29:14.055Z,174.00
2023-07-17T05:30:14.204Z,179.00
2023-07-17T05:31:14.384Z,172.00
2023-07-17T05:32:14.476Z,166.00
2023-07-17T05:33:14.586Z,164.00
2023-07-17T05:34:14.838Z,165.00
2023-07-17T05:35:16.746Z,167.00
2023-07-17T05:36:15.026Z,171.00
2023-07-17T05:37:15.136Z,179.00
2023-07-17T05:38:15.267Z,194.00
2023-07-17T05:39:15.458Z,110.00
2023-07-17T05:40:15.520Z,227.00
2023-07-17T05:41:15.744Z,173.00
2023-07-17T05:42:15.857Z,232.00
2023-07-17T05:43:15.927Z,192.00
2023-07-17T05:44:16.099Z,196.00
2023-07-17T05:45:16.174Z,174.00
2023-07-17T05:46:16.374Z,177.00
2023-07-17T05:47:16.464Z,189.00
2023-07-17T05:48:16.621Z,262.00
2023-07-17T05:49:16.742Z,385.00
2023-07-17T05:50:16.867Z,433.00
2023-07-17T05:51:17.452Z,444.00
2023-07-17T05:52:17.171Z,442.00
2023-07-17T05:53:17.366Z,448.00
2023-07-17T05:54:17.412Z,452.00
2023-07-17T05:55:17.560Z,455.00
2023-07-17T05:56:17.683Z,461.00
2023-07-17T05:57:17.863Z,465.00
2023-07-17T05:58:17.989Z,469.00
2023-07-17T05:59:18.206Z,474.00
2023-07-17T06:00:18.267Z,478.00
2023-07-17T06:01:18.659Z,482.00
2023-07-17T06:02:18.568Z,489.00
2023-07-17T06:03:18.713Z,494.00
2023-07-17T06:04:18.945Z,493.00
2023-07-17T06:05:19.046Z,505.00
2023-07-17T06:06:19.065Z,502.00
2023-07-17T06:07:19.220Z,511.00
2023-07-17T06:08:19.335Z,516.00
2023-07-17T06:09:19.508Z,511.00
2023-07-17T06:10:19.627Z,524.00
2023-07-17T06:11:19.966Z,530.00
2023-07-17T06:12:19.866Z,536.00
2023-07-17T06:13:20.007Z,579.00
2023-07-17T06:14:20.113Z,534.00
2023-07-17T06:15:20.252Z,533.00
2023-07-17T06:16:20.410Z,547.00
2023-07-17T06:17:20.479Z,428.00
2023-07-17T06:18:20.628Z,548.00
2023-07-17T06:19:20.785Z,548.00
2023-07-17T06:20:20.939Z,532.00
2023-07-17T06:21:21.072Z,560.00
2023-07-17T06:22:21.252Z,289.00
2023-07-17T06:23:21.445Z,604.00
2023-07-17T06:24:21.635Z,569.00
2023-07-17T06:25:21.623Z,583.00
2023-07-17T06:26:21.771Z,581.00
2023-07-17T06:27:21.885Z,266.00
2023-07-17T06:28:21.979Z,682.00
2023-07-17T06:29:22.166Z,540.00
2023-07-17T06:30:22.328Z,116.00
2023-07-17T06:31:22.438Z,583.00
2023-07-17T06:32:22.551Z,594.00
2023-07-17T06:33:22.665Z,594.00
2023-07-17T06:34:22.784Z,590.00
2023-07-17T06:35:22.919Z,609.00
2023-07-17T06:36:23.031Z,600.00
2023-07-17T06:37:23.172Z,590.00
2023-07-17T06:38:23.311Z,607.00
2023-07-17T06:39:23.436Z,616.00
2023-07-17T06:40:23.502Z,592.00
2023-07-17T06:41:23.621Z,710.00
2023-07-17T06:42:23.755Z,622.00
2023-07-17T06:43:23.888Z,622.00
2023-07-17T06:44:24.028Z,627.00
2023-07-17T06:45:24.197Z,620.00
2023-07-17T06:46:24.339Z,626.00
2023-07-17T06:47:36.506Z,96.00
2023-07-17T06:48:25.691Z,634.00
2023-07-17T06:49:24.763Z,635.00
2023-07-17T06:50:24.894Z,637.00
2023-07-17T06:51:25.082Z,625.00
2023-07-17T06:52:25.208Z,651.00
2023-07-17T06:53:25.326Z,640.00
2023-07-17T06:54:25.574Z,641.00
2023-07-17T06:55:25.668Z,221.00
2023-07-17T06:56:25.793Z,692.00
2023-07-17T06:57:25.907Z,641.00
2023-07-17T06:58:26.043Z,683.00
2023-07-17T06:59:26.186Z,709.00
2023-07-17T07:00:26.347Z,701.00
2023-07-17T07:01:26.488Z,452.00
2023-07-17T07:02:26.689Z,700.00
2023-07-17T07:03:26.739Z,128.00
2023-07-17T07:04:26.879Z,745.00
2023-07-17T07:05:26.964Z,632.00
2023-07-17T07:06:27.115Z,674.00
2023-07-17T07:07:27.281Z,836.00
2023-07-17T07:08:27.407Z,684.00
2023-07-17T07:09:27.544Z,662.00
2023-07-17T07:10:27.652Z,1185.00
2023-07-17T07:11:27.799Z,719.00
2023-07-17T07:12:27.914Z,706.00
2023-07-17T07:13:28.091Z,834.00
2023-07-17T07:14:28.238Z,695.00
2023-07-17T07:15:28.345Z,239.00
2023-07-17T07:16:28.516Z,697.00
2023-07-17T07:17:28.710Z,697.00
2023-07-17T07:18:28.797Z,701.00
2023-07-17T07:19:28.870Z,247.00
2023-07-17T07:20:28.987Z,657.00
2023-07-17T07:21:29.136Z,742.00
2023-07-17T07:22:29.299Z,868.00
2023-07-17T07:23:29.400Z,819.00
2023-07-17T07:24:29.563Z,859.00
2023-07-17T07:25:29.644Z,456.00
2023-07-17T07:26:29.792Z,309.00
2023-07-17T07:27:29.911Z,775.00
2023-07-17T07:28:30.978Z,753.00
2023-07-17T07:29:30.202Z,751.00
2023-07-17T07:30:30.345Z,836.00
2023-07-17T07:31:30.583Z,765.00
2023-07-17T07:32:30.745Z,728.00
2023-07-17T07:33:30.828Z,857.00
2023-07-17T07:34:30.925Z,955.00
2023-07-17T07:35:31.136Z,749.00
2023-07-17T07:36:31.260Z,998.00
2023-07-17T07:37:31.414Z,935.00
2023-07-17T07:38:33.872Z,1011.00
2023-07-17T07:39:31.669Z,788.00
2023-07-17T07:40:31.778Z,863.00
2023-07-17T07:41:31.886Z,302.00
2023-07-17T07:42:32.003Z,858.00
2023-07-17T07:43:33.100Z,320.00
2023-07-17T07:44:32.253Z,160.00
2023-07-17T07:45:32.401Z,782.00
2023-07-17T07:46:32.649Z,179.00
2023-07-17T07:47:32.772Z,299.00
2023-07-17T07:48:32.950Z,805.00
2023-07-17T07:49:33.022Z,800.00
2023-07-17T07:50:35.157Z,799.00
2023-07-17T07:51:33.292Z,794.00
2023-07-17T07:52:33.464Z,798.00
2023-07-17T07:53:42.447Z,787.00
2023-07-17T07:54:34.756Z,856.00
2023-07-17T07:55:33.991Z,850.00
2023-07-17T07:56:34.052Z,808.00
2023-07-17T07:57:34.188Z,814.00
2023-07-17T07:58:34.325Z,812.00
2023-07-17T07:59:36.976Z,810.00
2023-07-17T08:00:34.620Z,812.00
2023-07-17T08:01:34.766Z,813.00
2023-07-17T08:02:34.906Z,805.00
2023-07-17T08:03:35.070Z,828.00
2023-07-17T08:04:35.149Z,828.00
2023-07-17T08:05:35.269Z,816.00
2023-07-17T08:06:35.395Z,823.00
2023-07-17T08:07:35.512Z,822.00
2023-07-17T08:08:35.667Z,818.00
2023-07-17T08:09:35.792Z,889.00
2023-07-17T08:10:35.940Z,821.00
2023-07-17T08:11:36.060Z,817.00
2023-07-17T08:12:36.196Z,824.00
2023-07-17T08:13:36.361Z,832.00
2023-07-17T08:14:36.473Z,814.00
2023-07-17T08:15:36.672Z,816.00
2023-07-17T08:16:36.849Z,805.00
2023-07-17T08:17:37.939Z,839.00
2023-07-17T08:18:37.113Z,826.00
2023-07-17T08:19:37.206Z,943.00
2023-07-17T08:20:37.337Z,832.00
2023-07-17T08:21:37.518Z,832.00
2023-07-17T08:22:37.722Z,924.00
2023-07-17T08:23:37.792Z,822.00
2023-07-17T08:24:37.912Z,830.00
2023-07-17T08:25:38.049Z,812.00
2023-07-17T08:26:38.255Z,826.00
2023-07-17T08:27:38.259Z,1019.00
2023-07-17T08:28:38.447Z,831.00
2023-07-17T08:29:38.571Z,909.00
2023-07-17T08:30:38.662Z,139.00
2023-07-17T08:31:38.884Z,804.00
2023-07-17T08:32:38.958Z,824.00
2023-07-17T08:33:39.080Z,795.00
2023-07-17T08:34:39.223Z,842.00
2023-07-17T08:35:39.340Z,795.00
2023-07-17T08:36:39.481Z,829.00
2023-07-17T08:37:39.618Z,813.00
2023-07-17T08:38:39.700Z,854.00
2023-07-17T08:39:39.838Z,1007.00
2023-07-17T08:40:39.964Z,882.00
2023-07-17T08:41:40.067Z,1086.00
2023-07-17T08:42:40.175Z,954.00
2023-07-17T08:43:40.380Z,815.00
2023-07-17T08:44:40.626Z,851.00
2023-07-17T08:45:40.633Z,1036.00
2023-07-17T08:46:40.776Z,980.00
2023-07-17T08:47:40.897Z,857.00
2023-07-17T08:48:40.986Z,844.00
2023-07-17T08:49:41.115Z,412.00
2023-07-17T08:50:41.251Z,139.00
2023-07-17T08:51:41.357Z,1105.00
2023-07-17T08:52:41.552Z,1221.00
2023-07-17T08:53:41.678Z,919.00
2023-07-17T08:54:41.788Z,974.00
2023-07-17T08:55:41.902Z,1425.00
2023-07-17T08:56:42.088Z,903.00
2023-07-17T08:57:43.636Z,1153.00
2023-07-17T08:58:42.324Z,1252.00
2023-07-17T08:59:42.434Z,842.00
2023-07-17T09:00:42.550Z,778.00
2023-07-17T09:01:42.679Z,793.00
2023-07-17T09:02:42.850Z,786.00
2023-07-17T09:03:43.044Z,765.00
2023-07-17T09:04:43.061Z,347.00
2023-07-17T09:05:43.170Z,762.00
2023-07-17T09:06:43.312Z,793.00
2023-07-17T09:07:43.458Z,969.00
2023-07-17T09:08:43.558Z,854.00
2023-07-17T09:09:43.734Z,751.00
2023-07-17T09:10:43.927Z,663.00
2023-07-17T09:12:59.489Z,404.00
2023-07-17T09:13:59.612Z,367.00
2023-07-17T09:14:59.731Z,804.00
2023-07-17T09:15:59.831Z,474.00
2023-07-17T09:17:00.036Z,670.00
2023-07-17T09:18:00.184Z,392.00
2023-07-17T09:19:00.277Z,784.00
2023-07-17T09:20:00.409Z,485.00
2023-07-17T09:21:00.528Z,732.00
2023-07-17T09:22:00.642Z,898.00
2023-07-17T09:23:00.807Z,351.00
2023-07-17T09:24:00.928Z,359.00
2023-07-17T09:25:01.070Z,624.00
2023-07-17T09:26:01.181Z,385.00
2023-07-17T09:27:01.294Z,786.00
2023-07-17T09:28:01.457Z,680.00
2023-07-17T09:29:01.514Z,650.00
2023-07-17T09:30:01.668Z,737.00
2023-07-17T09:31:01.874Z,616.00
2023-07-17T09:32:01.924Z,484.00
2023-07-17T09:33:02.080Z,143.00
2023-07-17T09:34:02.201Z,753.00
2023-07-17T09:35:02.353Z,424.00
2023-07-17T09:36:02.442Z,850.00
2023-07-17T09:37:02.545Z,485.00
2023-07-17T09:38:02.649Z,238.00
2023-07-17T09:39:02.830Z,601.00
2023-07-17T09:40:02.942Z,832.00
2023-07-17T09:41:03.070Z,516.00
2023-07-17T09:42:03.203Z,578.00
2023-07-17T09:43:03.366Z,665.00
2023-07-17T09:44:03.514Z,367.00
2023-07-17T09:45:03.638Z,674.00
2023-07-17T09:46:03.756Z,661.00
2023-07-17T09:47:03.894Z,656.00
2023-07-17T09:48:04.112Z,643.00
2023-07-17T09:49:04.172Z,641.00
2023-07-17T09:50:04.286Z,639.00
2023-07-17T09:51:04.421Z,640.00
2023-07-17T09:52:04.593Z,644.00
2023-07-17T09:53:04.728Z,641.00
2023-07-17T09:54:04.854Z,632.00
2023-07-17T09:55:04.942Z,624.00
2023-07-17T09:56:05.068Z,627.00
2023-07-17T09:57:05.220Z,630.00
2023-07-17T09:58:05.336Z,644.00
2023-07-17T09:59:05.454Z,650.00
2023-07-17T10:00:05.610Z,667.00
2023-07-17T10:01:05.748Z,637.00
2023-07-17T10:02:05.866Z,665.00
2023-07-17T10:03:06.066Z,661.00
2023-07-17T10:04:06.248Z,648.00
2023-07-17T10:05:06.253Z,744.00
2023-07-17T10:06:06.359Z,693.00
2023-07-17T10:07:06.558Z,930.00
2023-07-17T10:08:06.764Z,1440.00
2023-07-17T10:09:06.798Z,1346.00
2023-07-17T10:10:07.992Z,1054.00
2023-07-17T10:11:07.046Z,936.00
2023-07-17T10:12:07.182Z,549.00
2023-07-17T10:13:07.305Z,706.00
2023-07-17T10:14:07.470Z,686.00
2023-07-17T10:15:07.577Z,774.00
2023-07-17T10:16:07.660Z,803.00
2023-07-17T10:17:07.847Z,684.00
2023-07-17T10:18:07.994Z,602.00
2023-07-17T10:29:39.362Z,661.00
2023-07-17T10:30:39.498Z,654.00
2023-07-17T10:31:39.556Z,651.00
2023-07-17T10:32:39.712Z,641.00
2023-07-17T10:33:39.810Z,656.00
2023-07-17T10:34:39.956Z,669.00
2023-07-17T10:35:40.124Z,657.00
2023-07-17T10:36:40.294Z,765.00
2023-07-17T10:37:40.433Z,815.00
2023-07-17T10:38:40.568Z,690.00
2023-07-17T10:39:40.711Z,741.00
2023-07-17T10:40:40.887Z,951.00
2023-07-17T10:41:41.034Z,1007.00
2023-07-17T10:42:41.173Z,918.00
2023-07-17T10:43:41.316Z,615.00
2023-07-17T10:44:41.408Z,843.00
2023-07-17T10:45:41.522Z,781.00
2023-07-17T10:46:41.748Z,853.00
2023-07-17T10:47:41.834Z,763.00
2023-07-17T10:48:42.932Z,1118.00
2023-07-17T10:49:42.034Z,693.00
2023-07-17T10:50:42.242Z,797.00
2023-07-17T10:51:42.348Z,779.00
2023-07-17T10:52:42.505Z,839.00
2023-07-17T10:53:42.585Z,796.00
2023-07-17T10:54:42.714Z,765.00
2023-07-17T10:55:42.865Z,785.00
2023-07-17T10:56:42.952Z,813.00
2023-07-17T10:57:43.101Z,891.00
2023-07-17T10:58:43.223Z,1400.00
2023-07-17T10:59:43.332Z,1562.00
2023-07-17T11:00:43.505Z,1286.00
2023-07-17T11:01:43.705Z,1555.00
2023-07-17T11:02:43.805Z,1420.00
2023-07-17T11:03:43.956Z,1520.00
2023-07-17T11:04:44.046Z,948.00
2023-07-17T11:05:44.116Z,1722.00
2023-07-17T11:06:44.312Z,1650.00
2023-07-17T11:07:44.438Z,1440.00
2023-07-17T11:08:44.550Z,758.00
2023-07-17T11:09:44.669Z,1006.00
2023-07-17T11:10:44.822Z,717.00
2023-07-17T11:11:47.054Z,1107.00
2023-07-17T11:12:45.084Z,910.00
2023-07-17T11:13:45.208Z,955.00
2023-07-17T11:14:45.343Z,1317.00
2023-07-17T11:15:45.448Z,1225.00
2023-07-17T11:16:45.603Z,1111.00
2023-07-17T11:17:45.832Z,1016.00
2023-07-17T11:18:45.889Z,1631.00
2023-07-17T11:19:45.993Z,1763.00
2023-07-17T11:20:46.103Z,1146.00
2023-07-17T11:21:46.256Z,1475.00
2023-07-17T11:22:46.398Z,1084.00
2023-07-17T11:23:46.788Z,1232.00
2023-07-17T11:24:46.579Z,1477.00
2023-07-17T11:25:46.682Z,1267.00
2023-07-17T11:26:46.871Z,1330.00
2023-07-17T11:27:47.036Z,1299.00
2023-07-17T11:28:47.147Z,1651.00
2023-07-17T11:29:47.662Z,1705.00
2023-07-17T11:30:47.429Z,1711.00
2023-07-17T11:31:47.595Z,1439.00
2023-07-17T11:32:47.692Z,1520.00
2023-07-17T11:33:47.960Z,2017.00
2023-07-17T11:34:47.947Z,1649.00
2023-07-17T11:35:48.076Z,1232.00
2023-07-17T11:36:48.169Z,945.00
2023-07-17T11:37:48.265Z,1042.00
2023-07-17T11:38:48.429Z,1236.00
2023-07-17T11:39:48.611Z,1015.00
2023-07-17T11:40:48.718Z,1015.00
2023-07-17T11:41:48.880Z,985.00
2023-07-17T11:42:48.949Z,990.00
2023-07-17T11:43:50.052Z,986.00
2023-07-17T11:44:49.228Z,1013.00
2023-07-17T11:45:49.388Z,997.00
2023-07-17T11:46:49.455Z,1061.00
2023-07-17T11:47:49.683Z,1338.00
2023-07-17T11:48:49.679Z,1805.00
2023-07-17T11:49:49.832Z,1508.00
2023-07-17T11:50:49.929Z,1764.00
2023-07-17T11:51:50.033Z,1401.00
2023-07-17T11:52:50.202Z,1163.00
2023-07-17T11:53:50.372Z,556.00
2023-07-17T11:54:50.509Z,538.00
2023-07-17T11:55:50.602Z,1051.00
2023-07-17T11:56:50.769Z,1441.00
2023-07-17T11:57:59.462Z,1064.00
2023-07-17T11:58:52.047Z,1204.00
2023-07-17T11:59:51.144Z,1169.00
2023-07-17T12:00:51.261Z,1202.00
2023-07-17T12:01:51.457Z,1209.00
2023-07-17T12:02:51.574Z,1700.00
2023-07-17T12:03:53.601Z,1622.00
2023-07-17T12:04:51.735Z,1078.00
2023-07-17T12:05:51.837Z,903.00
2023-07-17T12:06:51.996Z,1896.00
2023-07-17T12:07:52.098Z,2254.00
2023-07-17T12:08:52.272Z,2016.00
2023-07-17T12:09:52.439Z,2010.00
2023-07-17T12:10:52.492Z,941.00
2023-07-17T12:11:52.671Z,1366.00
2023-07-17T12:12:53.664Z,1321.00
2023-07-17T12:13:52.906Z,1338.00
2023-07-17T12:14:53.111Z,1431.00
2023-07-17T12:15:53.177Z,1450.00
2023-07-17T12:16:53.291Z,1535.00
2023-07-17T12:17:53.425Z,1533.00
2023-07-17T12:18:53.501Z,2018.00
2023-07-17T12:19:53.678Z,2103.00
2023-07-17T12:20:53.816Z,942.00
2023-07-17T12:21:53.923Z,1968.00
2023-07-17T12:22:54.984Z,1939.00
2023-07-17T12:23:54.197Z,1612.00
2023-07-17T12:24:54.306Z,1744.00
2023-07-17T12:25:54.493Z,1718.00
2023-07-17T12:26:54.550Z,1834.00
2023-07-17T12:27:54.643Z,1631.00
2023-07-17T12:28:54.838Z,2041.00
2023-07-17T12:29:54.913Z,1864.00
2023-07-17T12:30:55.093Z,2164.00
2023-07-17T12:31:55.279Z,2404.00
2023-07-17T12:32:55.918Z,2568.00
2023-07-17T12:33:55.443Z,2108.00
2023-07-17T12:34:55.538Z,2038.00
2023-07-17T12:35:55.662Z,2086.00
2023-07-17T12:36:55.823Z,2282.00
2023-07-17T12:37:57.736Z,2384.00
2023-07-17T12:38:56.048Z,1334.00
2023-07-17T12:39:57.690Z,2438.00
2023-07-17T12:40:56.269Z,2288.00
2023-07-17T12:41:56.441Z,2358.00
2023-07-17T12:42:56.561Z,2594.00
2023-07-17T12:43:56.681Z,2780.00
2023-07-17T12:44:56.802Z,2811.00
2023-07-17T12:46:50.818Z,3327.00
2023-07-17T12:46:58.075Z,3563.00
2023-07-17T12:47:57.241Z,3529.00
2023-07-17T12:48:57.261Z,10392.00
2023-07-17T12:49:57.377Z,14893.00
2023-07-17T12:50:59.270Z,18009.00
2023-07-17T12:51:57.947Z,854.00
2023-07-17T12:52:57.747Z,920.00
2023-07-17T12:53:57.879Z,527.00
2023-07-17T12:54:57.986Z,555.00
2023-07-17T12:56:14.645Z,589.00
2023-07-17T12:56:59.236Z,596.00
2023-07-17T12:57:58.381Z,745.00
2023-07-17T12:58:58.542Z,1564.00
2023-07-17T12:59:58.670Z,5197.00
2023-07-17T13:00:58.839Z,23437.00
2023-07-17T13:02:01.488Z,1205.00
2023-07-17T13:02:59.170Z,1200.00
2023-07-17T13:03:59.342Z,1287.00
2023-07-17T13:04:59.324Z,1494.00
2023-07-17T13:05:59.478Z,950.00
2023-07-17T13:06:59.554Z,3831.00
2023-07-17T13:07:59.728Z,501.00
2023-07-17T13:08:59.845Z,544.00
2023-07-17T13:10:00.045Z,692.00
2023-07-17T13:11:00.102Z,726.00
2023-07-17T13:12:00.209Z,780.00
2023-07-17T13:13:00.317Z,1021.00
2023-07-17T13:14:00.453Z,910.00
2023-07-17T13:15:00.544Z,1357.00
2023-07-17T13:16:00.730Z,4095.00
2023-07-17T13:17:00.814Z,1439.00
2023-07-17T13:18:00.997Z,1213.00
2023-07-17T13:19:01.036Z,670.00
2023-07-17T13:20:01.185Z,700.00
2023-07-17T13:21:01.260Z,790.00
2023-07-17T13:22:01.371Z,813.00
2023-07-17T13:23:01.580Z,569.00
2023-07-17T13:24:01.671Z,554.00
2023-07-17T13:25:01.834Z,35721.00
2023-07-17T13:26:01.949Z,37323.00
2023-07-17T13:27:02.069Z,1344.00
2023-07-17T13:28:02.196Z,15344.00
2023-07-17T13:29:02.291Z,1935.00
2023-07-17T13:30:02.419Z,928.00
2023-07-17T13:31:09.865Z,808.00
2023-07-17T13:32:03.715Z,902.00
2023-07-17T13:33:02.773Z,496.00
2023-07-17T13:34:02.943Z,580.00
2023-07-17T13:35:03.024Z,624.00
2023-07-17T13:36:03.189Z,622.00
2023-07-17T13:37:03.291Z,869.00
2023-07-17T13:38:03.412Z,782.00
2023-07-17T13:39:03.510Z,661.00
2023-07-17T13:40:03.621Z,212.00
2023-07-17T13:41:03.748Z,1553.00
2023-07-17T13:42:03.880Z,3346.00
2023-07-17T13:43:04.021Z,925.00
2023-07-17T13:44:04.145Z,1145.00
2023-07-17T13:45:04.339Z,411.00
2023-07-17T13:46:04.369Z,388.00
2023-07-17T13:47:04.548Z,520.00
2023-07-17T13:48:04.693Z,514.00
2023-07-17T13:49:04.768Z,697.00
2023-07-17T13:50:04.943Z,660.00
2023-07-17T13:51:05.036Z,563.00
2023-07-17T13:52:05.154Z,602.00
2023-07-17T13:53:05.362Z,971.00
2023-07-17T13:54:05.390Z,2867.00
2023-07-17T13:55:05.478Z,1908.00
2023-07-17T13:56:05.631Z,2151.00
2023-07-17T13:57:05.764Z,2270.00
2023-07-17T13:58:05.890Z,23926.00
2023-07-17T13:59:05.995Z,31692.00
2023-07-17T14:00:06.127Z,15038.00
2023-07-17T14:01:06.272Z,4107.00
2023-07-17T14:02:06.559Z,31466.00
2023-07-17T14:03:06.615Z,5623.00
2023-07-17T14:04:06.908Z,968.00
2023-07-17T14:05:06.754Z,4462.00
2023-07-17T14:06:06.914Z,1419.00
2023-07-17T14:07:07.002Z,777.00
2023-07-17T14:08:07.091Z,2719.00
2023-07-17T14:09:07.203Z,2267.00
2023-07-17T14:10:07.395Z,11690.00
2023-07-17T14:11:07.512Z,2739.00
2023-07-17T14:12:07.614Z,19802.00
2023-07-17T14:13:07.746Z,11741.00
2023-07-17T14:14:07.856Z,24925.00
2023-07-17T14:15:07.988Z,3152.00
2023-07-17T14:16:08.164Z,25107.00
2023-07-17T14:17:08.236Z,23209.00
2023-07-17T14:18:08.334Z,26037.00
2023-07-17T14:19:08.432Z,27643.00
2023-07-17T14:20:08.619Z,28624.00
2023-07-17T14:21:08.739Z,25481.00
2023-07-17T14:22:08.836Z,21301.00
2023-07-17T14:23:08.999Z,3591.00
2023-07-17T14:24:09.126Z,26075.00
2023-07-17T14:25:09.233Z,28229.00
2023-07-17T14:26:09.345Z,15214.00
2023-07-17T14:27:09.488Z,29512.00
2023-07-17T14:28:09.597Z,26978.00
2023-07-17T14:29:09.698Z,24732.00
2023-07-17T14:30:09.848Z,24636.00
2023-07-17T14:31:10.003Z,23247.00
2023-07-17T14:32:10.095Z,21791.00
2023-07-17T14:33:10.233Z,21335.00
2023-07-17T14:34:10.329Z,8287.00
2023-07-17T14:35:10.427Z,14410.00
2023-07-17T14:36:10.537Z,1954.00
2023-07-17T14:37:10.677Z,1512.00
2023-07-17T14:38:10.827Z,2031.00
2023-07-17T14:39:10.924Z,5974.00
2023-07-17T14:40:11.112Z,4943.00
2023-07-17T14:41:11.359Z,4750.00
2023-07-17T14:42:11.416Z,3622.00
2023-07-17T14:43:11.439Z,3982.00
2023-07-17T14:44:11.560Z,3709.00
2023-07-17T14:45:11.677Z,4002.00
2023-07-17T14:46:11.895Z,4046.00
2023-07-17T14:47:11.895Z,3241.00
2023-07-17T14:48:12.142Z,2661.00
2023-07-17T14:49:12.116Z,3209.00
2023-07-17T14:50:12.288Z,3126.00
2023-07-17T14:51:12.379Z,2455.00
2023-07-17T14:52:12.487Z,3051.00
2023-07-17T14:53:12.606Z,2448.00
2023-07-17T14:54:12.765Z,2156.00
2023-07-17T14:55:12.857Z,1975.00
2023-07-17T14:56:13.072Z,1818.00
2023-07-17T14:57:13.147Z,2032.00
2023-07-17T14:58:13.241Z,2125.00
2023-07-17T14:59:13.391Z,2061.00
2023-07-17T15:00:13.488Z,2479.00
2023-07-17T15:01:13.637Z,2084.00
2023-07-17T15:02:13.732Z,1605.00
2023-07-17T15:03:13.917Z,1612.00
2023-07-17T15:04:14.091Z,1571.00
2023-07-17T15:05:17.171Z,1676.00
2023-07-17T15:06:15.231Z,1663.00
2023-07-17T15:07:14.364Z,1685.00
2023-07-17T15:08:14.462Z,1840.00
2023-07-17T15:09:14.577Z,1868.00
2023-07-17T15:10:14.691Z,1846.00
2023-07-17T15:11:14.798Z,1511.00
2023-07-17T15:12:14.993Z,1779.00
2023-07-17T15:13:15.112Z,1489.00
2023-07-17T15:14:25.917Z,2088.00
2023-07-17T15:15:16.332Z,2055.00
2023-07-17T15:16:15.485Z,1855.00
2023-07-17T15:17:15.554Z,1702.00
2023-07-17T15:18:15.704Z,1513.00
2023-07-17T15:19:15.869Z,1744.00
2023-07-17T15:20:16.010Z,1228.00
2023-07-17T15:21:16.126Z,1144.00
2023-07-17T15:22:16.234Z,1134.00
2023-07-17T15:23:16.467Z,1094.00
2023-07-17T15:24:16.496Z,1143.00
2023-07-17T15:25:16.622Z,1070.00
2023-07-17T15:26:17.138Z,934.00
2023-07-17T15:27:16.844Z,814.00
2023-07-17T15:28:16.979Z,554.00
2023-07-17T15:29:17.057Z,501.00
2023-07-17T15:30:17.213Z,610.00
2023-07-17T15:31:17.430Z,713.00
2023-07-17T15:32:17.515Z,644.00
2023-07-17T15:33:17.642Z,512.00
2023-07-17T15:34:17.777Z,394.00
2023-07-17T15:35:17.856Z,288.00
2023-07-17T15:36:18.298Z,238.00
2023-07-17T15:37:18.180Z,178.00
2023-07-17T15:38:18.325Z,126.00
2023-07-17T15:39:18.432Z,105.00
2023-07-17T15:40:18.540Z,107.00
2023-07-17T15:41:18.662Z,108.00
2023-07-17T15:42:18.753Z,118.00
2023-07-17T15:43:18.972Z,95.00
2023-07-17T15:44:19.042Z,69.00
2023-07-17T15:45:19.238Z,133.00
2023-07-17T15:46:20.304Z,193.00
2023-07-17T15:47:19.577Z,219.00
2023-07-17T15:48:19.638Z,240.00
2023-07-17T15:49:19.758Z,188.00
2023-07-17T15:50:19.828Z,162.00
2023-07-17T15:51:19.985Z,144.00
2023-07-17T15:52:20.143Z,124.00
2023-07-17T15:53:20.340Z,81.00
2023-07-17T15:54:20.486Z,73.00
2023-07-17T15:55:20.582Z,89.00
2023-07-17T15:56:21.034Z,114.00
2023-07-17T15:57:20.860Z,78.00
2023-07-17T15:58:20.970Z,62.00
2023-07-17T15:59:21.065Z,75.00
2023-07-17T16:00:21.228Z,69.00
2023-07-17T16:01:21.385Z,73.00
2023-07-17T16:02:21.513Z,76.00
2023-07-17T16:03:21.621Z,55.00
2023-07-17T16:04:21.738Z,52.00
2023-07-17T16:05:21.929Z,68.00
2023-07-17T16:06:22.151Z,60.00
2023-07-17T16:07:22.134Z,53.00
2023-07-17T16:08:22.236Z,50.00
2023-07-17T16:09:22.379Z,41.00
2023-07-17T16:10:22.493Z,31.00
2023-07-17T16:11:22.672Z,26.00
2023-07-17T16:12:24.312Z,24.00
2023-07-17T16:13:22.917Z,37.00
2023-07-17T16:14:23.026Z,35.00
2023-07-17T16:15:23.147Z,30.00
2023-07-17T16:16:23.296Z,39.00
2023-07-17T16:17:23.365Z,28.00
2023-07-17T16:28:49.291Z,64.00
2023-07-17T16:29:49.401Z,65.00
2023-07-17T16:30:49.544Z,58.00
2023-07-17T16:31:49.625Z,54.00
2023-07-17T16:32:49.910Z,60.00
2023-07-17T16:33:49.919Z,63.00
2023-07-17T16:34:50.036Z,71.00
2023-07-17T16:35:50.156Z,79.00
2023-07-17T16:36:50.274Z,122.00
2023-07-17T16:37:50.389Z,139.00
2023-07-17T16:38:50.492Z,150.00
2023-07-17T16:39:50.670Z,161.00
2023-07-17T16:40:50.814Z,152.00
2023-07-17T16:41:50.939Z,154.00
2023-07-17T16:42:51.117Z,162.00
2023-07-17T16:43:51.206Z,169.00
2023-07-17T16:44:51.389Z,209.00
2023-07-17T16:45:51.492Z,278.00
2023-07-17T16:46:51.690Z,339.00
2023-07-17T16:47:51.846Z,328.00
2023-07-17T16:48:51.923Z,219.00
2023-07-17T16:49:52.076Z,195.00
2023-07-17T16:50:52.236Z,205.00
2023-07-17T16:51:52.375Z,250.00
2023-07-17T16:52:52.505Z,306.00
2023-07-17T16:53:52.642Z,316.00
2023-07-17T16:54:52.787Z,331.00
2023-07-17T16:55:52.956Z,345.00
2023-07-17T16:56:53.140Z,319.00
2023-07-17T16:57:53.244Z,370.00
2023-07-17T16:58:53.385Z,387.00
2023-07-17T16:59:53.548Z,386.00
2023-07-17T17:00:53.703Z,425.00